createdAt,value
2018-11-21T05:01:25.552Z,97.40
2018-11-21T05:04:06.790Z,97.00
2018-11-21T05:06:47.720Z,97.10
2018-11-21T05:09:29.188Z,97.30
2018-11-21T05:12:09.919Z,97.20
2018-11-21T05:14:50.362Z,97.10
2018-11-21T05:17:31.016Z,96.80
2018-11-21T05:20:12.263Z,96.90
2018-11-21T05:22:53.164Z,96.70
2018-11-21T05:25:22.034Z,97.00
2018-11-21T05:28:09.734Z,97.10
2018-11-21T05:30:57.297Z,97.30
2018-11-21T05:33:44.856Z,96.80
2018-11-21T05:36:32.722Z,96.90
2018-11-21T05:39:20.302Z,97.20
2018-11-21T05:42:07.954Z,97.10
2018-11-21T05:44:55.483Z,97.60
2018-11-21T05:47:43.305Z,97.40
2018-11-21T05:50:31.156Z,97.70
2018-11-21T05:53:18.681Z,97.60
2018-11-21T05:56:06.513Z,97.30
2018-11-21T05:58:54.155Z,97.30
2018-11-21T06:01:41.830Z,97.20
2018-11-21T06:04:29.437Z,96.80
2018-11-21T06:07:17.054Z,96.90
2018-11-21T06:10:06.427Z,97.20
2018-11-21T06:12:54.511Z,96.50
2018-11-21T06:15:42.196Z,96.30
2018-11-21T06:18:29.733Z,96.70
2018-11-21T06:21:17.689Z,96.80
2018-11-21T06:24:05.377Z,97.00
2018-11-21T06:27:12.507Z,96.40
2018-11-21T06:30:02.122Z,96.60
2018-11-21T06:32:48.611Z,96.90
2018-11-21T06:35:42.078Z,96.60
2018-11-21T06:38:29.640Z,96.90
2018-11-21T06:41:17.354Z,96.80
2018-11-21T06:44:05.022Z,97.10
2018-11-21T06:46:46.290Z,97.10
2018-11-21T06:49:26.549Z,97.20
2018-11-21T06:52:06.868Z,96.60
2018-11-21T06:54:49.291Z,97.10
2018-11-21T06:57:18.614Z,97.00
2018-11-21T07:00:07.003Z,96.50
2018-11-21T07:02:54.948Z,96.80
2018-11-21T07:05:43.146Z,97.00
2018-11-21T07:08:30.693Z,96.60
2018-11-21T07:11:18.258Z,96.60
2018-11-21T07:14:07.270Z,96.70
2018-11-21T07:16:54.017Z,96.40
2018-11-21T07:25:17.831Z,96.00
2018-11-21T07:28:05.453Z,96.50
2018-11-21T07:30:53.046Z,96.50
2018-11-21T07:33:46.363Z,96.70
2018-11-21T07:36:28.429Z,97.20
2018-11-21T07:39:16.254Z,97.10
2018-11-21T07:42:04.333Z,97.00
2018-11-21T07:44:52.319Z,97.00
2018-11-21T07:47:40.443Z,97.00
2018-11-21T07:50:28.264Z,97.00
2018-11-21T07:53:16.080Z,97.20
2018-11-21T07:56:03.752Z,97.40
2018-11-21T07:58:51.299Z,96.90
2018-11-21T08:01:58.117Z,96.90
2018-11-21T08:05:04.887Z,96.90
2018-11-21T08:08:02.772Z,97.20
2018-11-21T08:11:02.371Z,96.90
2018-11-21T08:14:02.259Z,97.30
2018-11-21T08:17:02.144Z,97.20
2018-11-21T08:20:01.852Z,96.40
2018-11-21T08:23:01.279Z,96.40
2018-11-21T08:26:01.497Z,96.40
2018-11-21T08:28:42.597Z,96.30
2018-11-21T08:31:23.502Z,96.40
2018-11-21T08:34:03.846Z,96.90
2018-11-21T08:36:44.478Z,96.40
2018-11-21T08:39:25.846Z,95.90
2018-11-21T08:41:54.151Z,96.00
2018-11-21T08:44:41.726Z,95.70
2018-11-21T08:47:29.609Z,95.70
2018-11-21T08:50:17.427Z,95.30
2018-11-21T08:53:05.417Z,94.90
2018-11-21T08:55:53.288Z,95.10
2018-11-21T08:58:40.864Z,95.40
2018-11-21T09:01:28.475Z,96.00
2018-11-21T09:04:16.033Z,95.50
2018-11-21T09:07:03.623Z,95.40
2018-11-21T09:09:51.179Z,95.10
2018-11-21T09:12:38.881Z,95.30
2018-11-21T09:15:26.523Z,95.10
2018-11-21T09:18:14.683Z,95.10
2018-11-21T09:21:02.191Z,94.90
2018-11-21T09:23:50.006Z,95.30
2018-11-21T09:29:25.437Z,95.90
2018-11-21T09:32:13.027Z,94.80
2018-11-21T09:35:00.648Z,94.90
2018-11-21T09:37:48.369Z,95.50
2018-11-21T09:40:35.956Z,95.00
2018-11-21T09:43:23.585Z,94.80
2018-11-21T09:46:11.231Z,94.90
2018-11-21T09:49:01.520Z,94.90
2018-11-21T09:51:49.117Z,94.70
2018-11-21T09:54:36.826Z,95.00
2018-11-21T09:57:24.422Z,94.80
2018-11-21T10:00:31.675Z,95.40
2018-11-21T10:03:29.423Z,95.60
2018-11-21T10:06:18.178Z,95.40
2018-11-21T10:09:10.216Z,95.10
2018-11-21T10:11:57.786Z,95.50
2018-11-21T10:14:45.401Z,95.10
2018-11-21T10:17:33.216Z,94.70
2018-11-21T10:20:21.263Z,95.00
2018-11-21T10:23:08.843Z,94.90
2018-11-21T10:25:56.677Z,94.10
2018-11-21T10:28:44.820Z,93.10
2018-11-21T10:31:32.440Z,93.60
2018-11-21T10:34:20.014Z,93.80
2018-11-21T10:37:07.615Z,94.40
2018-11-21T10:39:55.441Z,94.30
2018-11-21T10:42:43.318Z,94.30
2018-11-21T10:45:30.883Z,94.10
2018-11-21T10:48:18.479Z,94.20
2018-11-21T10:51:06.145Z,94.10
2018-11-21T10:53:53.731Z,93.70
2018-11-21T10:56:41.466Z,94.10
2018-11-21T10:59:29.022Z,93.40
2018-11-21T11:02:22.943Z,93.70
2018-11-21T11:05:29.732Z,93.60
2018-11-21T11:08:36.535Z,92.90
2018-11-21T11:11:44.035Z,93.10
2018-11-21T11:14:50.849Z,93.40
2018-11-21T11:17:59.602Z,92.90
2018-11-21T11:21:04.886Z,93.30
2018-11-21T11:24:11.667Z,92.90
2018-11-21T11:27:18.454Z,93.40
2018-11-21T11:30:25.223Z,93.60
2018-11-21T11:33:32.007Z,93.10
2018-11-21T11:36:39.020Z,93.00
2018-11-21T11:39:45.797Z,94.30
2018-11-21T11:42:52.549Z,93.80
2018-11-21T11:45:59.326Z,94.20
2018-11-21T11:49:06.176Z,93.70
2018-11-21T11:52:13.003Z,93.20
2018-11-21T11:55:19.809Z,93.20
2018-11-21T11:58:07.101Z,94.10
2018-11-21T12:01:13.931Z,94.10
2018-11-21T12:04:20.984Z,93.70
2018-11-21T12:07:17.663Z,93.40
2018-11-21T12:10:24.492Z,93.10
2018-11-21T12:13:31.279Z,93.40
2018-11-21T12:16:38.062Z,93.80
2018-11-21T12:19:44.926Z,94.00
2018-11-21T12:22:51.717Z,94.50
2018-11-21T12:25:39.375Z,93.70
2018-11-21T12:28:46.204Z,94.30
2018-11-21T12:31:53.013Z,93.20
2018-11-21T12:35:00.082Z,93.10
2018-11-21T12:38:06.893Z,93.10
2018-11-21T12:41:13.665Z,93.70
2018-11-21T12:44:20.475Z,92.70
2018-11-21T12:47:27.542Z,93.00
2018-11-21T12:50:34.316Z,92.90
2018-11-21T12:53:41.128Z,92.60
2018-11-21T12:56:47.956Z,92.80
2018-11-21T12:59:54.728Z,93.10
2018-11-21T13:02:51.980Z,93.10
2018-11-21T13:05:48.872Z,93.50
2018-11-21T13:08:55.656Z,93.70
2018-11-21T13:12:02.530Z,93.80
2018-11-21T13:15:09.369Z,94.20
2018-11-21T13:18:06.886Z,94.10
2018-11-21T13:21:01.386Z,94.00
2018-11-21T13:23:49.590Z,94.00
2018-11-21T13:26:48.058Z,94.40
2018-11-21T13:29:54.094Z,94.60
2018-11-21T13:32:53.842Z,94.30
2018-11-21T13:35:53.957Z,94.60
2018-11-21T13:38:53.859Z,94.80
2018-11-21T13:41:46.536Z,94.90
2018-11-21T13:44:51.680Z,95.10
2018-11-21T13:47:51.265Z,95.00
2018-11-21T13:50:50.645Z,95.60
2018-11-21T13:53:53.450Z,95.50
2018-11-21T13:56:21.578Z,95.70
2018-11-21T13:59:09.444Z,96.10
2018-11-21T14:01:57.012Z,96.30
2018-11-21T14:04:44.707Z,96.00
2018-11-21T14:07:32.555Z,95.60
2018-11-21T14:10:20.368Z,96.00
2018-11-21T14:13:08.004Z,95.90
2018-11-21T14:15:55.568Z,96.00
2018-11-21T14:18:43.280Z,96.40
2018-11-21T14:21:31.003Z,96.30
2018-11-21T14:24:18.596Z,96.10
2018-11-21T14:27:06.506Z,96.00
2018-11-21T14:29:54.133Z,95.90
2018-11-21T14:32:43.233Z,96.10
2018-11-21T14:35:29.894Z,96.40
2018-11-21T14:41:04.920Z,96.40
2018-11-21T14:43:52.780Z,96.60
2018-11-21T14:46:41.064Z,96.60
2018-11-21T14:49:28.890Z,96.50
2018-11-21T14:52:16.514Z,96.50
2018-11-21T14:55:04.435Z,96.60
2018-11-21T14:57:52.532Z,96.40
2018-11-21T15:00:40.497Z,96.40
2018-11-21T15:03:28.079Z,96.60
2018-11-21T15:06:15.643Z,96.60
2018-11-21T15:09:03.379Z,96.60
2018-11-21T15:11:51.180Z,96.60
2018-11-21T15:14:38.934Z,96.70
2018-11-21T15:17:26.981Z,96.50
2018-11-21T15:20:15.969Z,96.00
2018-11-21T15:23:03.581Z,96.10
2018-11-21T15:25:51.614Z,96.20
2018-11-21T15:28:39.251Z,96.40
2018-11-21T15:31:26.865Z,96.30
2018-11-21T15:34:14.684Z,96.20
2018-11-21T15:37:02.732Z,96.40
2018-11-21T15:39:50.317Z,96.40
2018-11-21T15:42:37.885Z,96.60
2018-11-21T15:45:26.167Z,96.60
2018-11-21T15:48:13.782Z,96.30
2018-11-21T15:51:01.319Z,96.20
2018-11-21T15:53:49.085Z,96.10
2018-11-21T15:56:36.845Z,95.60
2018-11-21T15:59:24.424Z,95.70
2018-11-21T16:02:12.247Z,95.70
2018-11-21T16:05:04.525Z,96.00
2018-11-21T16:07:54.353Z,95.90
2018-11-21T16:10:44.477Z,96.10
2018-11-21T16:13:32.471Z,95.70
2018-11-21T16:16:00.662Z,95.80
2018-11-21T16:18:48.460Z,95.60
2018-11-21T16:21:36.279Z,95.60
2018-11-21T16:24:25.757Z,95.80
2018-11-21T16:27:15.344Z,95.70
2018-11-21T16:30:02.910Z,96.00
2018-11-21T16:32:50.699Z,95.70
2018-11-21T16:35:38.808Z,95.70
2018-11-21T16:38:26.407Z,95.50
2018-11-21T16:41:13.992Z,95.80
2018-11-21T16:44:01.870Z,95.80
2018-11-21T16:46:49.415Z,95.80
2018-11-21T16:49:17.783Z,96.20
2018-11-21T16:52:05.623Z,96.30
2018-11-21T16:54:53.234Z,96.40
2018-11-21T16:57:40.953Z,96.50
2018-11-21T17:00:29.617Z,96.70
2018-11-21T17:03:17.206Z,96.80
2018-11-21T17:05:45.619Z,96.70
2018-11-21T17:08:13.714Z,96.80
2018-11-21T17:11:01.544Z,96.90
2018-11-21T17:13:49.316Z,97.10
2018-11-21T17:16:36.910Z,97.00
2018-11-21T17:19:24.488Z,97.20
2018-11-21T17:22:12.285Z,97.20
2018-11-21T17:25:00.371Z,97.60
2018-11-21T17:27:48.344Z,97.50
2018-11-21T17:30:36.147Z,97.70
2018-11-21T17:33:23.969Z,97.60
2018-11-21T17:36:11.528Z,97.60
2018-11-21T17:38:59.617Z,97.40
2018-11-21T17:41:47.464Z,97.30
2018-11-21T17:44:35.338Z,97.30
2018-11-21T17:50:11.638Z,97.50
2018-11-21T17:53:00.691Z,97.60
2018-11-21T17:55:48.721Z,97.60
2018-11-21T17:58:36.271Z,97.70
2018-11-21T18:01:24.166Z,97.50
2018-11-21T18:04:11.851Z,97.40
2018-11-21T18:06:59.636Z,97.30
2018-11-21T18:09:47.197Z,97.30
2018-11-21T18:12:35.115Z,97.30
2018-11-21T18:15:03.278Z,97.30
2018-11-21T18:17:50.915Z,97.30
2018-11-21T18:20:38.564Z,97.30
2018-11-21T18:23:26.352Z,97.30
2018-11-21T18:26:13.915Z,97.20
2018-11-21T18:29:01.740Z,97.40
2018-11-21T18:31:49.602Z,97.30
2018-11-21T18:34:37.202Z,97.50
2018-11-21T18:37:24.778Z,98.00
2018-11-21T18:40:17.018Z,97.50
2018-11-21T18:43:05.077Z,97.80
2018-11-21T18:45:35.663Z,97.50
2018-11-21T18:48:23.485Z,97.80
2018-11-21T18:51:11.040Z,97.90
2018-11-21T18:53:59.041Z,97.60
2018-11-21T18:56:52.107Z,97.50
2018-11-21T18:59:59.179Z,97.60
2018-11-21T19:02:46.766Z,97.70
2018-11-21T19:05:34.680Z,97.60
2018-11-21T19:08:22.274Z,97.70
2018-11-21T19:11:02.659Z,97.70
2018-11-21T19:13:43.723Z,97.50
2018-11-21T19:16:24.367Z,97.50
2018-11-21T19:19:05.068Z,97.70
2018-11-21T19:21:33.227Z,97.70
2018-11-21T19:24:01.312Z,98.10
2018-11-21T19:26:29.472Z,98.00
2018-11-21T19:29:17.319Z,97.90
2018-11-21T19:32:05.020Z,98.00
2018-11-21T19:34:52.558Z,97.90
2018-11-21T19:37:40.400Z,98.00
2018-11-21T19:40:27.944Z,98.20
2018-11-21T19:43:15.723Z,98.00
2018-11-21T19:46:03.332Z,98.20
2018-11-21T19:48:50.907Z,98.20
2018-11-21T19:51:38.497Z,98.10
2018-11-21T19:54:26.047Z,98.10
2018-11-21T19:57:13.861Z,98.00
2018-11-21T20:00:01.406Z,98.20
2018-11-21T20:02:49.225Z,98.20
2018-11-21T20:05:17.572Z,98.00
2018-11-21T20:08:05.642Z,98.10
2018-11-21T20:10:53.485Z,98.00
2018-11-21T20:13:41.543Z,98.10
2018-11-21T20:16:29.333Z,98.00
2018-11-21T20:19:16.968Z,98.10
2018-11-21T20:22:04.683Z,98.00
2018-11-21T20:24:52.527Z,97.50
2018-11-21T20:27:40.298Z,97.70
2018-11-21T20:30:48.712Z,97.80
2018-11-21T20:36:26.198Z,97.20
2018-11-21T20:42:30.349Z,97.10
2018-11-21T20:45:17.703Z,97.10
2018-11-21T20:48:13.308Z,96.70
2018-11-21T20:51:04.141Z,96.90
2018-11-21T20:53:51.859Z,97.10
2018-11-21T20:56:42.550Z,97.00
2018-11-21T20:59:30.326Z,97.20
2018-11-21T21:02:18.369Z,97.10
2018-11-21T21:05:06.749Z,97.20
2018-11-21T21:08:13.514Z,97.50
2018-11-21T21:11:01.528Z,97.50
2018-11-21T21:13:51.709Z,97.40
2018-11-21T21:16:39.494Z,97.50
2018-11-21T21:19:27.394Z,97.30
2018-11-21T21:22:18.468Z,97.40
